createdAt,value
2017-07-20T00:01:08.542Z,20.30
2017-07-20T00:03:34.904Z,20.30
2017-07-20T00:06:01.604Z,20.30
2017-07-20T00:08:27.934Z,20.30
2017-07-20T00:10:54.251Z,20.30
2017-07-20T00:13:20.581Z,20.30
2017-07-20T00:15:51.934Z,20.30
2017-07-20T00:18:18.333Z,20.20
2017-07-20T00:20:44.651Z,20.30
2017-07-20T00:23:11.004Z,20.30
2017-07-20T00:25:37.347Z,20.30
2017-07-20T00:28:03.748Z,20.30
2017-07-20T00:30:30.153Z,20.20
2017-07-20T00:32:56.492Z,20.30
2017-07-20T00:35:27.248Z,20.30
2017-07-20T00:37:53.592Z,20.30
2017-07-20T00:40:20.795Z,20.20
2017-07-20T00:42:47.142Z,20.20
2017-07-20T00:45:13.506Z,20.30
2017-07-20T00:47:39.875Z,20.10
2017-07-20T00:50:13.402Z,20.30
2017-07-20T00:52:39.760Z,20.20
2017-07-20T00:55:06.111Z,20.00
2017-07-20T00:57:32.473Z,20.20
2017-07-20T00:59:58.894Z,20.10
2017-07-20T01:02:25.261Z,20.20
2017-07-20T01:04:51.626Z,20.10
2017-07-20T01:07:17.960Z,20.10
2017-07-20T01:09:50.829Z,20.20
2017-07-20T01:12:17.215Z,20.20
2017-07-20T01:14:43.655Z,20.30
2017-07-20T01:19:41.744Z,20.00
2017-07-20T01:22:08.166Z,20.30
2017-07-20T01:24:34.520Z,20.20
2017-07-20T01:27:00.870Z,20.20
2017-07-20T01:29:27.351Z,20.30
2017-07-20T01:31:53.710Z,20.30
2017-07-20T01:34:20.103Z,20.20
2017-07-20T01:36:46.449Z,20.30
2017-07-20T01:39:12.816Z,20.40
2017-07-20T01:41:39.241Z,20.40
2017-07-20T01:44:05.585Z,20.40
2017-07-20T01:46:32.650Z,20.30
2017-07-20T01:48:59.022Z,20.30
2017-07-20T01:51:25.389Z,20.40
2017-07-20T01:53:52.496Z,20.40
2017-07-20T01:56:20.802Z,20.30
2017-07-20T01:58:47.231Z,20.30
2017-07-20T02:01:13.593Z,20.30
2017-07-20T02:03:39.987Z,20.40
2017-07-20T02:06:06.376Z,20.30
2017-07-20T02:08:32.761Z,20.30
2017-07-20T02:10:59.137Z,20.30
2017-07-20T02:13:27.713Z,20.40
2017-07-20T02:15:54.074Z,20.40
2017-07-20T02:18:20.489Z,20.30
2017-07-20T02:20:46.837Z,20.30
2017-07-20T02:23:13.221Z,20.40
2017-07-20T02:25:40.321Z,20.40
2017-07-20T02:28:06.762Z,20.30
2017-07-20T02:30:33.145Z,20.30
2017-07-20T02:32:59.572Z,20.30
2017-07-20T02:35:26.024Z,20.30
2017-07-20T02:37:52.473Z,20.40
2017-07-20T02:40:19.654Z,20.30
2017-07-20T02:42:46.203Z,20.10
2017-07-20T02:45:13.211Z,20.20
2017-07-20T02:47:39.746Z,20.50
2017-07-20T02:50:06.338Z,20.20
2017-07-20T02:52:33.113Z,20.10
2017-07-20T02:54:59.450Z,20.10
2017-07-20T02:57:25.794Z,20.30
2017-07-20T02:59:55.816Z,20.30
2017-07-20T03:02:23.447Z,20.30
2017-07-20T03:04:49.841Z,20.30
2017-07-20T03:07:16.164Z,20.20
2017-07-20T03:09:42.507Z,20.10
2017-07-20T03:12:08.879Z,20.10
2017-07-20T03:14:35.274Z,20.00
2017-07-20T03:17:01.592Z,20.10
2017-07-20T03:19:27.972Z,20.00
2017-07-20T03:22:06.548Z,20.00
2017-07-20T03:24:32.853Z,20.00
2017-07-20T03:26:59.161Z,20.10
2017-07-20T03:29:25.465Z,20.20
2017-07-20T03:31:52.559Z,20.20
2017-07-20T03:34:18.901Z,20.20
2017-07-20T03:36:45.262Z,20.30
2017-07-20T03:39:13.163Z,20.20
2017-07-20T03:41:39.718Z,20.20
2017-07-20T03:44:06.317Z,20.20
2017-07-20T03:46:32.647Z,20.30
2017-07-20T03:48:59.716Z,20.40
2017-07-20T03:51:26.911Z,20.30
2017-07-20T03:53:53.258Z,20.40
2017-07-20T03:56:19.593Z,20.30
2017-07-20T03:58:45.954Z,20.40
2017-07-20T04:01:12.257Z,20.50
2017-07-20T04:03:38.614Z,20.50
2017-07-20T04:06:04.950Z,20.40
2017-07-20T04:08:33.794Z,20.40
2017-07-20T04:11:00.349Z,20.50
2017-07-20T04:13:27.614Z,20.50
2017-07-20T04:15:54.076Z,20.30
2017-07-20T04:18:20.522Z,20.70
2017-07-20T04:20:48.215Z,21.00
2017-07-20T04:23:14.566Z,21.00
2017-07-20T04:25:41.678Z,20.80
2017-07-20T04:28:08.015Z,20.60
2017-07-20T04:30:34.333Z,20.70
2017-07-20T04:33:00.673Z,20.90
2017-07-20T04:35:27.034Z,20.70
2017-07-20T04:37:54.259Z,20.70
2017-07-20T04:40:21.704Z,20.60
2017-07-20T04:42:48.598Z,20.70
2017-07-20T04:45:15.763Z,20.70
2017-07-20T04:47:42.169Z,20.70
2017-07-20T04:50:08.481Z,20.80
2017-07-20T04:52:34.982Z,20.50
2017-07-20T04:55:01.350Z,20.20
2017-07-20T04:57:28.496Z,20.30
2017-07-20T04:59:55.584Z,20.00
2017-07-20T05:02:21.916Z,19.90
2017-07-20T05:04:48.245Z,20.00
2017-07-20T05:07:14.593Z,19.90
2017-07-20T05:09:40.949Z,19.60
2017-07-20T05:12:07.268Z,19.40
2017-07-20T05:14:33.614Z,19.40
2017-07-20T05:17:06.997Z,19.20
2017-07-20T05:19:33.380Z,19.10
2017-07-20T05:22:00.470Z,19.10
2017-07-20T05:24:26.888Z,19.10
2017-07-20T05:26:53.237Z,19.00
2017-07-20T05:29:19.577Z,19.00
2017-07-20T05:31:45.914Z,19.00
2017-07-20T05:34:12.286Z,18.70
2017-07-20T05:36:38.634Z,18.90
2017-07-20T05:39:04.988Z,18.80
2017-07-20T05:41:31.372Z,18.90
2017-07-20T05:43:57.985Z,18.90
2017-07-20T05:46:24.879Z,18.90
2017-07-20T05:48:53.004Z,19.00
2017-07-20T05:51:19.336Z,19.10
2017-07-20T05:53:45.638Z,19.20
2017-07-20T05:56:11.960Z,19.20
2017-07-20T05:58:38.281Z,19.20
2017-07-20T06:01:04.600Z,19.20
2017-07-20T06:03:37.853Z,19.30
2017-07-20T06:06:04.410Z,19.30
2017-07-20T06:08:30.962Z,19.40
2017-07-20T06:10:57.496Z,19.50
2017-07-20T06:13:24.776Z,19.40
2017-07-20T06:15:51.368Z,19.40
2017-07-20T06:18:19.360Z,19.40
2017-07-20T06:20:45.880Z,19.50
2017-07-20T06:23:12.345Z,19.60
2017-07-20T06:25:38.932Z,19.50
2017-07-20T06:28:05.489Z,19.60
2017-07-20T06:30:32.039Z,19.60
2017-07-20T06:33:00.824Z,19.70
2017-07-20T06:35:27.402Z,19.70
2017-07-20T06:37:53.939Z,19.80
2017-07-20T06:40:20.532Z,19.80
2017-07-20T06:42:47.796Z,19.90
2017-07-20T06:45:15.080Z,19.90
2017-07-20T06:47:45.591Z,19.80
2017-07-20T06:50:12.287Z,19.80
2017-07-20T06:52:38.840Z,19.80
2017-07-20T06:55:05.407Z,19.80
2017-07-20T06:57:31.953Z,19.90
2017-07-20T06:59:59.235Z,20.20
2017-07-20T07:02:25.863Z,20.10
2017-07-20T07:04:52.457Z,20.30
2017-07-20T07:07:19.020Z,20.30
2017-07-20T07:09:45.642Z,20.30
2017-07-20T07:12:13.072Z,20.40
2017-07-20T07:14:39.639Z,20.40
2017-07-20T07:17:08.667Z,20.50
2017-07-20T07:19:35.270Z,20.40
2017-07-20T07:22:01.873Z,20.30
2017-07-20T07:24:29.394Z,20.30
2017-07-20T07:26:56.806Z,20.10
2017-07-20T07:29:23.392Z,20.00
2017-07-20T07:31:49.980Z,20.00
2017-07-20T07:34:16.665Z,20.10
2017-07-20T07:36:43.376Z,19.80
2017-07-20T07:39:13.192Z,20.10
2017-07-20T07:41:39.815Z,20.10
2017-07-20T07:44:06.412Z,20.00
2017-07-20T07:46:32.941Z,20.00
2017-07-20T07:48:59.512Z,20.00
2017-07-20T07:51:26.065Z,19.90
2017-07-20T07:53:52.643Z,20.00
2017-07-20T07:56:19.951Z,20.10
2017-07-20T07:58:46.505Z,20.10
2017-07-20T08:01:13.064Z,20.30
2017-07-20T08:03:39.616Z,20.20
2017-07-20T08:06:06.939Z,20.20
2017-07-20T08:08:34.297Z,20.20
2017-07-20T08:11:00.935Z,20.30
2017-07-20T08:13:27.609Z,20.40
2017-07-20T08:15:54.179Z,20.30
2017-07-20T08:18:21.460Z,20.40
2017-07-20T08:20:48.012Z,20.50
2017-07-20T08:23:15.345Z,20.60
2017-07-20T08:25:41.991Z,20.60
2017-07-20T08:28:08.553Z,20.70
2017-07-20T08:30:35.130Z,20.80
2017-07-20T08:33:01.704Z,21.00
2017-07-20T08:35:30.444Z,21.10
2017-07-20T08:37:57.045Z,21.40
2017-07-20T08:40:23.583Z,21.90
2017-07-20T08:42:50.179Z,22.20
2017-07-20T08:45:16.730Z,22.10
2017-07-20T08:47:43.320Z,22.30
2017-07-20T08:50:16.525Z,22.40
2017-07-20T08:52:43.045Z,22.80
2017-07-20T08:55:09.675Z,23.00
2017-07-20T08:57:36.260Z,23.40
2017-07-20T09:00:02.903Z,23.60
2017-07-20T09:02:29.484Z,24.40
2017-07-20T09:04:56.023Z,23.90
2017-07-20T09:09:55.024Z,23.50
2017-07-20T09:12:21.575Z,23.50
2017-07-20T09:14:48.105Z,23.40
2017-07-20T09:17:17.749Z,23.00
2017-07-20T09:19:44.309Z,22.70
2017-07-20T09:22:10.894Z,22.80
2017-07-20T09:24:37.485Z,22.90
2017-07-20T09:27:04.021Z,22.80
2017-07-20T09:29:30.621Z,23.00
2017-07-20T09:31:57.195Z,23.00
2017-07-20T09:34:23.744Z,23.00
2017-07-20T09:36:50.252Z,23.10
2017-07-20T09:39:17.436Z,23.00
2017-07-20T09:41:43.976Z,23.00
2017-07-20T09:44:10.563Z,23.30
2017-07-20T09:46:37.131Z,23.10
2017-07-20T09:49:03.724Z,23.00
2017-07-20T09:51:30.319Z,23.10
2017-07-20T09:53:56.922Z,22.80
2017-07-20T09:56:23.465Z,22.60
2017-07-20T09:58:50.790Z,22.60
2017-07-20T10:01:17.331Z,22.60
2017-07-20T10:03:43.903Z,22.50
2017-07-20T10:06:10.474Z,22.50
2017-07-20T10:08:38.702Z,22.50
2017-07-20T10:11:05.277Z,22.70
2017-07-20T10:13:31.885Z,22.50
2017-07-20T10:15:59.380Z,22.50
2017-07-20T10:18:25.935Z,22.50
2017-07-20T10:20:52.538Z,22.60
2017-07-20T10:23:21.109Z,22.80
2017-07-20T10:25:47.680Z,22.80
2017-07-20T10:28:14.241Z,23.10
2017-07-20T10:30:41.587Z,23.10
2017-07-20T10:33:08.924Z,22.90
2017-07-20T10:35:35.508Z,22.90
2017-07-20T10:38:02.129Z,22.80
2017-07-20T10:40:29.500Z,22.90
2017-07-20T10:42:56.047Z,23.00
2017-07-20T10:45:23.352Z,23.10
2017-07-20T10:47:50.700Z,23.00
2017-07-20T10:50:17.283Z,23.00
2017-07-20T10:55:15.524Z,23.20
2017-07-20T10:57:42.138Z,23.30
2017-07-20T11:00:08.765Z,23.50
2017-07-20T11:02:35.367Z,23.50
2017-07-20T11:05:02.678Z,23.60
2017-07-20T11:07:29.318Z,23.60
2017-07-20T11:09:57.517Z,23.60
2017-07-20T11:12:24.088Z,23.50
2017-07-20T11:14:51.435Z,23.90
2017-07-20T11:17:18.007Z,23.80
2017-07-20T11:19:44.596Z,24.10
2017-07-20T11:22:11.161Z,24.10
2017-07-20T11:24:37.728Z,24.00
2017-07-20T11:27:05.152Z,24.10
2017-07-20T11:29:31.749Z,24.20
2017-07-20T11:31:58.332Z,24.30
2017-07-20T11:34:24.888Z,24.30
2017-07-20T11:36:54.228Z,24.30
2017-07-20T11:39:20.802Z,24.20
2017-07-20T11:41:47.383Z,24.30
2017-07-20T11:44:13.942Z,24.20
2017-07-20T11:46:40.488Z,24.20
2017-07-20T11:49:07.875Z,24.00
2017-07-20T11:51:37.783Z,24.00
2017-07-20T11:54:04.445Z,24.40
2017-07-20T11:56:31.085Z,24.60
2017-07-20T11:58:58.301Z,24.70
2017-07-20T12:01:24.868Z,24.70
2017-07-20T12:03:51.428Z,24.70
2017-07-20T12:06:17.932Z,24.90
2017-07-20T12:08:49.560Z,24.90
2017-07-20T12:11:16.128Z,24.90
2017-07-20T12:13:42.672Z,25.00
2017-07-20T12:16:09.258Z,24.80
2017-07-20T12:18:35.795Z,24.80
2017-07-20T12:21:02.332Z,24.60
2017-07-20T12:23:28.951Z,24.30
2017-07-20T12:25:56.263Z,24.10
2017-07-20T12:28:22.832Z,24.10
2017-07-20T12:30:49.422Z,24.00
2017-07-20T12:33:16.019Z,24.30
2017-07-20T12:35:42.572Z,24.40
2017-07-20T12:38:09.116Z,24.40
2017-07-20T12:40:35.644Z,24.20
2017-07-20T12:43:02.210Z,24.20
2017-07-20T12:45:28.805Z,24.10
2017-07-20T12:47:56.097Z,23.90
2017-07-20T12:50:22.691Z,23.90
2017-07-20T12:52:53.125Z,24.10
2017-07-20T12:55:19.688Z,24.40
2017-07-20T12:57:46.258Z,24.70
2017-07-20T13:00:12.829Z,24.90
2017-07-20T13:02:39.517Z,25.10
2017-07-20T13:05:06.063Z,25.20
2017-07-20T13:07:33.343Z,25.10
2017-07-20T13:10:03.416Z,25.10
2017-07-20T13:12:29.998Z,25.20
2017-07-20T13:14:56.559Z,25.40
2017-07-20T13:17:23.197Z,25.40
2017-07-20T13:19:49.778Z,25.30
2017-07-20T13:22:16.345Z,25.50
2017-07-20T13:24:43.688Z,25.50
2017-07-20T13:27:10.284Z,25.50
2017-07-20T13:29:36.889Z,25.60
2017-07-20T13:32:03.496Z,25.60
2017-07-20T13:34:30.072Z,25.50
2017-07-20T13:36:58.501Z,25.70
2017-07-20T13:39:25.048Z,25.60
2017-07-20T13:41:51.606Z,25.70
2017-07-20T13:44:18.203Z,26.00
2017-07-20T13:46:44.752Z,26.10
2017-07-20T13:49:11.376Z,26.00
2017-07-20T13:51:37.969Z,26.00
2017-07-20T13:54:05.303Z,25.90
2017-07-20T13:56:31.875Z,25.90
2017-07-20T13:59:05.066Z,26.00
2017-07-20T14:01:31.743Z,26.10
2017-07-20T14:03:59.064Z,25.90
2017-07-20T14:06:25.734Z,25.90
2017-07-20T14:08:52.300Z,26.00
2017-07-20T14:11:18.920Z,25.90
2017-07-20T14:13:46.272Z,25.70
2017-07-20T14:16:12.853Z,25.70
2017-07-20T14:18:41.364Z,25.90
2017-07-20T14:21:08.721Z,26.10
2017-07-20T14:23:41.052Z,26.00
2017-07-20T14:26:07.629Z,25.90
2017-07-20T14:28:34.185Z,26.00
2017-07-20T14:31:00.780Z,26.10
2017-07-20T14:33:27.345Z,26.10
2017-07-20T14:35:54.059Z,25.90
2017-07-20T14:38:20.616Z,25.80
2017-07-20T14:40:47.189Z,25.70
2017-07-20T14:43:13.672Z,25.60
2017-07-20T14:45:40.985Z,25.70
2017-07-20T14:48:07.642Z,25.70
2017-07-20T14:50:34.201Z,25.90
2017-07-20T14:53:01.559Z,26.00
2017-07-20T14:55:28.880Z,26.00
2017-07-20T14:57:55.481Z,25.60
2017-07-20T15:00:22.570Z,26.10
2017-07-20T15:02:48.965Z,26.10
2017-07-20T15:05:15.336Z,26.10
2017-07-20T15:07:41.684Z,25.90
2017-07-20T15:10:08.166Z,26.10
2017-07-20T15:12:34.510Z,26.10
2017-07-20T15:15:00.870Z,26.10
2017-07-20T15:17:27.696Z,26.10
2017-07-20T15:19:54.402Z,26.10
2017-07-20T15:22:24.663Z,26.10
2017-07-20T15:24:51.019Z,26.10
2017-07-20T15:27:18.134Z,26.10
2017-07-20T15:29:44.474Z,26.10
2017-07-20T15:32:10.832Z,26.00
2017-07-20T15:34:37.244Z,25.90
2017-07-20T15:37:07.100Z,25.70
2017-07-20T15:39:34.478Z,25.80
2017-07-20T15:42:00.861Z,25.80
2017-07-20T15:44:27.183Z,25.70
2017-07-20T15:46:53.555Z,25.60
2017-07-20T15:49:19.897Z,25.50
2017-07-20T15:51:52.421Z,25.50
2017-07-20T15:54:18.806Z,25.70
2017-07-20T15:56:45.177Z,25.80
2017-07-20T15:59:11.487Z,25.80
2017-07-20T16:01:38.552Z,25.60
2017-07-20T16:04:04.925Z,25.60
2017-07-20T16:06:31.292Z,25.50
2017-07-20T16:08:57.700Z,25.60
2017-07-20T16:11:24.034Z,25.70
2017-07-20T16:13:50.396Z,25.80
2017-07-20T16:16:16.765Z,25.90
2017-07-20T16:18:43.209Z,25.80
2017-07-20T16:21:09.593Z,25.60
2017-07-20T16:23:35.948Z,25.70
2017-07-20T16:26:02.344Z,25.70
2017-07-20T16:28:28.890Z,25.70
2017-07-20T16:30:56.788Z,25.60
2017-07-20T16:33:23.114Z,25.60
2017-07-20T16:35:50.178Z,25.70
2017-07-20T16:38:16.532Z,25.70
2017-07-20T16:40:42.962Z,25.60
2017-07-20T16:43:09.285Z,25.60
2017-07-20T16:45:35.629Z,25.50
2017-07-20T16:48:01.960Z,25.50
2017-07-20T16:50:28.941Z,25.50
2017-07-20T16:52:55.262Z,25.50
2017-07-20T16:55:24.425Z,25.30
2017-07-20T16:57:50.777Z,25.30
2017-07-20T17:00:17.184Z,25.10
2017-07-20T17:02:43.553Z,25.10
2017-07-20T17:05:09.921Z,25.00
2017-07-20T17:07:36.266Z,24.80
2017-07-20T17:10:03.057Z,25.10
2017-07-20T17:12:29.401Z,25.00
2017-07-20T17:14:55.703Z,25.00
2017-07-20T17:17:22.059Z,25.10
2017-07-20T17:19:49.432Z,25.00
2017-07-20T17:22:15.749Z,25.00
2017-07-20T17:24:42.072Z,25.00
2017-07-20T17:27:08.380Z,24.70
2017-07-20T17:29:34.704Z,24.80
2017-07-20T17:32:01.007Z,25.00
2017-07-20T17:34:27.351Z,25.00
2017-07-20T17:36:53.689Z,25.00
2017-07-20T17:39:20.036Z,25.10
2017-07-20T17:41:46.397Z,25.00
2017-07-20T17:44:12.749Z,25.00
2017-07-20T17:46:39.103Z,24.90
2017-07-20T17:49:05.480Z,24.90
2017-07-20T17:51:31.825Z,24.80
2017-07-20T17:53:58.208Z,24.90
2017-07-20T17:56:24.548Z,24.90
2017-07-20T17:58:50.869Z,24.80
2017-07-20T18:01:17.237Z,24.70
2017-07-20T18:03:43.616Z,24.70
2017-07-20T18:06:09.952Z,24.70
2017-07-20T18:08:36.309Z,24.70
2017-07-20T18:11:02.660Z,24.70
2017-07-20T18:13:29.091Z,24.60
2017-07-20T18:15:55.429Z,24.60
2017-07-20T18:18:21.805Z,24.60
2017-07-20T18:20:48.238Z,24.60
2017-07-20T18:23:23.056Z,24.60
2017-07-20T18:25:50.308Z,24.40
2017-07-20T18:28:17.375Z,24.30
2017-07-20T18:30:43.719Z,24.30
2017-07-20T18:33:10.087Z,24.20
2017-07-20T18:35:36.425Z,24.30
2017-07-20T18:38:03.533Z,24.30
2017-07-20T18:40:29.876Z,24.30
2017-07-20T18:42:56.204Z,24.30
2017-07-20T18:45:22.534Z,24.20
2017-07-20T18:47:49.631Z,24.20
2017-07-20T18:50:18.801Z,24.10
2017-07-20T18:52:45.143Z,24.10
2017-07-20T18:55:11.489Z,24.10
2017-07-20T18:57:37.868Z,24.00
2017-07-20T19:00:04.223Z,23.50
2017-07-20T19:02:30.583Z,23.20
2017-07-20T19:04:56.916Z,23.00
2017-07-20T19:07:24.670Z,22.70
2017-07-20T19:09:50.992Z,22.60
2017-07-20T19:12:18.076Z,22.40
2017-07-20T19:14:44.422Z,22.40
2017-07-20T19:17:10.765Z,22.30
2017-07-20T19:19:37.125Z,22.40
2017-07-20T19:22:04.209Z,22.20
2017-07-20T19:24:30.570Z,22.20
2017-07-20T19:26:58.953Z,22.20
2017-07-20T19:29:25.403Z,22.10
2017-07-20T19:31:51.753Z,22.10
2017-07-20T19:34:18.207Z,22.10
2017-07-20T19:36:45.229Z,22.00
2017-07-20T19:39:12.086Z,21.60
2017-07-20T19:41:38.936Z,21.60
2017-07-20T19:44:07.339Z,21.80
2017-07-20T19:46:34.052Z,21.80
2017-07-20T19:49:00.816Z,21.70
2017-07-20T19:51:28.716Z,21.70
2017-07-20T19:53:55.839Z,21.70
2017-07-20T19:56:22.607Z,21.70
2017-07-20T19:58:49.446Z,21.60
2017-07-20T20:01:16.544Z,21.70
2017-07-20T20:03:43.743Z,21.60
2017-07-20T20:06:10.375Z,21.50
2017-07-20T20:08:37.480Z,21.40
2017-07-20T20:11:03.951Z,21.40
2017-07-20T20:13:30.537Z,21.50
2017-07-20T20:15:56.880Z,21.50
2017-07-20T20:18:23.269Z,21.40
2017-07-20T20:20:53.553Z,21.40
2017-07-20T20:23:19.920Z,21.50
2017-07-20T20:25:46.324Z,21.50
2017-07-20T20:28:14.111Z,21.40
2017-07-20T20:30:41.421Z,21.10
2017-07-20T20:33:12.160Z,21.40
2017-07-20T20:35:39.365Z,21.40
2017-07-20T20:38:06.765Z,21.40
2017-07-20T20:40:34.770Z,21.50
2017-07-20T20:43:03.606Z,21.50
2017-07-20T20:45:34.479Z,21.40
2017-07-20T20:48:01.100Z,21.40
2017-07-20T20:50:27.894Z,21.10
2017-07-20T20:52:56.006Z,21.30
2017-07-20T20:55:22.533Z,21.30
2017-07-20T20:57:49.082Z,21.30
2017-07-20T21:00:15.687Z,21.20
2017-07-20T21:02:42.088Z,21.10
2017-07-20T21:05:08.512Z,21.10
2017-07-20T21:07:34.886Z,21.10
2017-07-20T21:10:01.485Z,21.10
2017-07-20T21:12:28.069Z,21.00
2017-07-20T21:14:54.654Z,21.00
2017-07-20T21:17:26.216Z,20.70
2017-07-20T21:19:52.566Z,21.00
2017-07-20T21:22:18.984Z,21.00
2017-07-20T21:24:49.692Z,21.00
2017-07-20T21:27:16.098Z,21.00
2017-07-20T21:29:42.441Z,20.90
2017-07-20T21:32:08.822Z,20.80
2017-07-20T21:34:35.165Z,20.90
2017-07-20T21:37:01.536Z,20.80
2017-07-20T21:39:29.517Z,20.80
2017-07-20T21:41:55.867Z,20.80
2017-07-20T21:44:22.253Z,20.70
2017-07-20T21:49:22.619Z,20.60
2017-07-20T21:51:49.978Z,20.40
2017-07-20T21:54:16.325Z,20.40
2017-07-20T21:56:42.665Z,20.40
2017-07-20T21:59:09.090Z,20.40
2017-07-20T22:01:39.231Z,20.30
2017-07-20T22:04:05.578Z,20.40
2017-07-20T22:06:31.919Z,20.30
2017-07-20T22:08:58.268Z,20.30
2017-07-20T22:11:24.611Z,20.20
2017-07-20T22:13:50.964Z,20.10
2017-07-20T22:16:21.077Z,20.10
2017-07-20T22:18:47.472Z,20.10
2017-07-20T22:21:16.865Z,20.20
2017-07-20T22:23:43.228Z,20.20
2017-07-20T22:26:09.587Z,19.90
2017-07-20T22:28:35.904Z,19.80
2017-07-20T22:31:02.267Z,19.80
2017-07-20T22:33:29.376Z,19.80
2017-07-20T22:38:29.534Z,19.70
2017-07-20T22:40:55.899Z,19.70
2017-07-20T22:43:23.026Z,19.70
2017-07-20T22:45:49.368Z,19.40
2017-07-20T22:48:15.708Z,19.50
2017-07-20T22:50:42.120Z,19.60
2017-07-20T22:53:08.475Z,19.50
2017-07-20T22:55:34.876Z,19.60
2017-07-20T22:58:01.208Z,19.50
2017-07-20T23:00:33.127Z,19.60
2017-07-20T23:02:59.553Z,19.60
2017-07-20T23:05:25.920Z,19.60
2017-07-20T23:07:52.294Z,19.50
2017-07-20T23:10:24.699Z,19.50
2017-07-20T23:12:51.063Z,19.50
2017-07-20T23:15:17.386Z,19.30
2017-07-20T23:17:47.747Z,19.40
2017-07-20T23:20:14.436Z,19.50
2017-07-20T23:22:41.007Z,19.30
2017-07-20T23:25:13.793Z,19.30
2017-07-20T23:27:41.100Z,19.30
2017-07-20T23:30:07.743Z,19.30
2017-07-20T23:35:08.586Z,19.20
2017-07-20T23:37:35.035Z,19.10
2017-07-20T23:40:01.648Z,19.10
2017-07-20T23:42:28.216Z,19.00
2017-07-20T23:44:55.475Z,18.90
2017-07-20T23:47:28.286Z,18.80
2017-07-20T23:49:54.936Z,19.00
2017-07-20T23:52:21.523Z,18.90
2017-07-20T23:54:48.176Z,18.80
2017-07-20T23:57:14.749Z,18.70
2017-07-20T23:59:42.034Z,18.60
